Huvudsida
METAR-TAF:

METAR-TAF

Flygplatser :

Visby Airport

Visby, Gotland, Sverige

latitud: 57-40N, longitud: 018-21E, höjd: 51 m

Aktuellt väderrapport

Denna rapport gjordes för 31 minuter sedan, klockan 03:20 UTC
Vind 13 kt från sydväst
Temperatur 4°C
Fuktighet 81%
Tryck 1001 hPa
Sikt 10 km eller mer

METAR: ESSV 190320Z AUTO 23013KT 9999 FEW026/// 04/01 Q1001

Tid: 04:51 (03:51 UTC)

Väderprognos

Denna rapport gjordes för 51 minuter sedan, klockan 03:00 UTC
Prognos gäller från 19 kl. 04 UTC till 19 kl. 12 UTC
Vind 15 kt från sydväst
Sikt 10 km eller mer
Brutna moln på en höjd av 2500 ft
Sannolikhet 40%
från 19 kl. 07 UTC till 19 kl. 09 UTC
Brutna moln på en höjd av 1400 ft
Temporärt
från 19 kl. 09 UTC till 19 kl. 12 UTC
Sikt: 4000 m
Brutna moln på en höjd av 800 ft
Brutna moln på en höjd av 2000 ft, Cumulonimbus.
regn

TAF: ESSV 190300Z 1904/1912 23015KT 9999 BKN025 PROB40 1907/1909 BKN014 TEMPO 1909/1912 4000 RA BKN008 BKN020CB

Aktuella väderrapporter och prognoser från 4000 flygplatser (METAR- och TAF-rapporter).

De tillgängliga stationerna syns som gula och röda prickar på kartan.

För musen över prickarna för att se namnen på stationerna.

Klicka sedan för att få väderrapporter och prognoser.

För att ändra kartan: Klicka på de gröna knapparna med ett svart kors på för att zooma in; den gröna knappen med ett streck på för att zooma ut; eller på de gröna pilarna för angränsande kartor.


METAR-TAF: